»·PEaware :: AAL243 KPSP-KSLC

AAL243 :: KPSP-KSLC

FLIGHT INFORMATION

Flight Status: Arrived
Operator:
American Airlines
More flights by this operator :: More flights under this callsign
Pilot: Tatianna C. (7783)
Aircraft: AIRBUS A320
(A320)
More flights by this aircraft type
Origin: KPSP Palm Springs Intl
United States
Destination: KSLC Salt Lake City Intl
United States
More flights between these airports :: More routes between these airports
Route: +CATH1 PSP V370 TNP JOTNU ZELMA HAKMN Q73 LAKRR MLF QWENN4
File this flight plan on PilotEdge
Remarks:
Altitude:
(Current/Filed)
17,000ft
Speed:
(Current/Filed)
300kts
Departed: 19-Apr-17 02:15 PM
Arrived: 19-Apr-17 03:27 PM
Distance/Time
Traveled:
470nm/1:12
Distance/Time
To Go:
Arrived

Flight Plot

Page will automatically refresh every two minutes.

Flight plan parsing failed; only flown route is shown


Map Options




Map Legend


Flown Route
Filed Route
Departure Airport
Arrival Airport
Navaid (VOR, NDB)
Fix

Horizontal Profiles

Position Reports

Time Latitude Longitude Heading Altitude Ground
Speed
19-Apr-17 13:47 33.822744 -116.505862 291 485ft 0kts
19-Apr-17 13:48 33.822744 -116.505862 291 485ft 0kts
19-Apr-17 13:49 33.822744 -116.505862 291 485ft 0kts
19-Apr-17 13:50 33.822744 -116.505862 291 485ft 0kts
19-Apr-17 13:51 33.822744 -116.505862 291 485ft 0kts
19-Apr-17 13:52 33.822744 -116.505862 291 485ft 0kts
19-Apr-17 13:53 33.822744 -116.505862 291 485ft 0kts
19-Apr-17 13:54 33.822744 -116.505862 291 485ft 0kts
19-Apr-17 13:55 33.822744 -116.505862 291 485ft 0kts
19-Apr-17 13:56 33.822744 -116.505862 291 485ft 0kts
19-Apr-17 13:57 33.822744 -116.505862 291 485ft 0kts
19-Apr-17 13:58 33.822744 -116.505862 291 485ft 0kts
19-Apr-17 13:59 33.822744 -116.505862 291 485ft 0kts
19-Apr-17 14:00 33.822744 -116.505862 291 485ft 0kts
19-Apr-17 14:01 33.822744 -116.505862 291 485ft 0kts
19-Apr-17 14:02 33.822744 -116.505862 291 485ft 0kts
19-Apr-17 14:03 33.822744 -116.505862 291 485ft 0kts
19-Apr-17 14:04 33.822744 -116.505862 291 485ft 0kts
19-Apr-17 14:05 33.822744 -116.505862 291 485ft 0kts
19-Apr-17 14:06 33.822733 -116.505827 290 485ft 0kts
19-Apr-17 14:07 33.822734 -116.505826 289 485ft 0kts
19-Apr-17 14:08 33.822733 -116.505826 288 485ft 0kts
19-Apr-17 14:09 33.822725 -116.505763 298 485ft 0kts
19-Apr-17 14:10 33.822216 -116.505758 53 485ft 0kts
19-Apr-17 14:11 33.822216 -116.505758 53 485ft 0kts
19-Apr-17 14:12 33.822216 -116.505758 53 485ft 0kts
19-Apr-17 14:13 33.822365 -116.505501 55 485ft 7kts
19-Apr-17 14:14 33.821038 -116.501997 143 485ft 18kts
19-Apr-17 14:15 33.818499 -116.499179 84 485ft 0kts
19-Apr-17 14:16 33.818673 -116.498365 48 485ft 11kts
19-Apr-17 14:17 33.835478 -116.512902 324 631ft 157kts
19-Apr-17 14:18 33.872851 -116.548073 321 2946ft 187kts
19-Apr-17 14:19 33.903360 -116.524479 111 5077ft 228kts
19-Apr-17 14:20 33.865918 -116.457824 96 6910ft 285kts
19-Apr-17 14:21 33.879546 -116.377639 62 9049ft 311kts
19-Apr-17 14:22 33.912002 -116.293253 65 10359ft 364kts
19-Apr-17 14:23 33.957702 -116.173829 65 12398ft 407kts
19-Apr-17 14:24 34.006063 -116.047167 65 14919ft 428kts
19-Apr-17 14:25 34.057156 -115.913892 64 16702ft 462kts
19-Apr-17 14:26 34.111495 -115.777492 53 17098ft 480kts
19-Apr-17 14:27 34.205383 -115.665644 40 17093ft 477kts
19-Apr-17 14:28 34.301861 -115.556811 39 17094ft 477kts
19-Apr-17 14:29 34.417375 -115.490226 16 17076ft 466kts
19-Apr-17 14:30 34.539434 -115.436739 15 16959ft 466kts
19-Apr-17 14:31 34.661101 -115.383570 15 16959ft 467kts
19-Apr-17 14:32 34.775871 -115.333202 16 16958ft 467kts
19-Apr-17 14:33 34.897800 -115.290586 11 16958ft 465kts
19-Apr-17 14:34 35.021636 -115.248097 11 16941ft 465kts
19-Apr-17 14:35 35.143042 -115.206276 11 16931ft 465kts
19-Apr-17 14:36 35.261829 -115.165224 11 16931ft 465kts
19-Apr-17 14:37 35.385419 -115.122366 11 16931ft 465kts
19-Apr-17 14:38 35.506957 -115.072032 33 17019ft 473kts
19-Apr-17 14:39 35.598665 -114.955636 45 17012ft 478kts
19-Apr-17 14:40 35.687160 -114.834857 45 17012ft 478kts
19-Apr-17 14:41 35.775773 -114.713521 45 17012ft 478kts
19-Apr-17 14:42 35.863919 -114.592378 46 17013ft 478kts
19-Apr-17 14:43 35.952381 -114.470362 45 17013ft 477kts
19-Apr-17 14:44 36.040051 -114.348997 46 17014ft 477kts
19-Apr-17 14:45 36.129142 -114.263614 20 17009ft 468kts
19-Apr-17 14:46 36.242261 -114.200909 20 16987ft 467kts
19-Apr-17 14:47 36.360487 -114.136472 20 17040ft 467kts
19-Apr-17 14:48 36.478976 -114.071725 20 17039ft 468kts
19-Apr-17 14:49 36.597458 -114.006766 20 17039ft 468kts
19-Apr-17 14:50 36.715664 -113.941737 20 17039ft 468kts
19-Apr-17 14:51 36.834099 -113.876363 20 17040ft 468kts
19-Apr-17 14:52 36.952559 -113.810754 20 17039ft 467kts
19-Apr-17 14:53 37.070628 -113.745137 20 17040ft 467kts
19-Apr-17 14:54 37.185369 -113.681217 20 17039ft 467kts
19-Apr-17 14:55 37.303651 -113.615039 20 17040ft 467kts
19-Apr-17 14:56 37.421246 -113.549018 20 16891ft 470kts
19-Apr-17 14:57 37.532345 -113.486867 19 16983ft 465kts
19-Apr-17 14:58 37.639726 -113.426781 20 16984ft 467kts
19-Apr-17 14:59 37.757670 -113.359790 20 16984ft 469kts
19-Apr-17 15:00 37.864836 -113.298523 20 16982ft 469kts
19-Apr-17 15:01 37.982959 -113.230856 20 16982ft 469kts
19-Apr-17 15:02 38.099811 -113.163751 20 16983ft 468kts
19-Apr-17 15:03 38.211706 -113.099329 20 16982ft 468kts
19-Apr-17 15:04 38.329157 -113.031396 20 16965ft 469kts
19-Apr-17 15:05 38.445235 -112.968154 18 16956ft 467kts
19-Apr-17 15:06 38.564247 -112.904644 18 16944ft 467kts
19-Apr-17 15:07 38.683715 -112.840660 18 16947ft 467kts
19-Apr-17 15:08 38.802383 -112.776878 18 16947ft 467kts
19-Apr-17 15:09 38.920100 -112.713369 18 16974ft 465kts
19-Apr-17 15:10 39.038701 -112.649148 18 16974ft 465kts
19-Apr-17 15:10 39.125997 -112.601747 18 16973ft 465kts
19-Apr-17 15:12 39.217791 -112.551795 18 16974ft 465kts
19-Apr-17 15:13 39.335954 -112.486361 19 16974ft 466kts
19-Apr-17 15:14 39.453211 -112.419109 19 16980ft 466kts
19-Apr-17 15:15 39.570892 -112.351350 19 16980ft 466kts
19-Apr-17 15:16 39.677598 -112.289505 20 16973ft 466kts
19-Apr-17 15:17 39.795116 -112.221228 20 16528ft 458kts
19-Apr-17 15:18 39.908825 -112.155095 20 15010ft 448kts
19-Apr-17 15:19 40.021620 -112.088385 21 14875ft 438kts
19-Apr-17 15:19 40.109914 -112.035085 21 12944ft 427kts
19-Apr-17 15:21 40.227369 -111.963921 23 11391ft 400kts
19-Apr-17 15:21 40.314502 -111.936105 2 10992ft 395kts
19-Apr-17 15:23 40.435370 -111.933896 353 11000ft 365kts
19-Apr-17 15:23 40.518544 -111.943581 354 9451ft 357kts
19-Apr-17 15:25 40.623260 -111.955658 354 7258ft 287kts
19-Apr-17 15:25 40.680941 -111.962310 354 6110ft 225kts
19-Apr-17 15:27 40.738901 -111.968961 353 4940ft 155kts
19-Apr-17 15:27 40.773202 -111.972950 354 4303ft 151kts
19-Apr-17 15:28 40.795266 -111.976459 319 4235ft 16kts
19-Apr-17 15:29 40.793463 -111.977483 175 4235ft 11kts
19-Apr-17 15:30 40.788505 -111.976903 177 4235ft 20kts
19-Apr-17 15:31 40.784111 -111.976920 258 4235ft 13kts
19-Apr-17 15:32 40.784654 -111.977986 0 4235ft 0kts

Navigation Log

Ident Type
Flight plan parsing failed, navigation log unavailable